Time;durP1;ratioP1;P1;durP2;ratioP2;P2;SDS_P1;SDS_P2;PMS_P1;PMS_P2;Temp;Humidity;BMP_temperature;BMP_pressure;BME280_temperature;BME280_humidity;BME280_pressure;Samples;Min_cycle;Max_cycle;Signal;HPM_P1;HPM_P2
2022/07/02 00:01:26;;;;;;;14.50;2.70;;;;;;;;;;5055524;28;20036;-44
2022/07/02 00:03:55;;;;;;;22.55;2.95;;;;;;;;;;5055528;28;20469;-41
2022/07/02 00:06:28;;;;;;;6.25;1.80;;;;;;;;;;5055807;28;20031;-43
2022/07/02 00:08:54;;;;;;;8.98;2.30;;;;;;;;;;5055277;28;20477;-41
2022/07/02 00:11:20;;;;;;;6.10;2.33;;;;;;;;;;5055054;28;20029;-42
2022/07/02 00:13:48;;;;;;;10.30;2.03;;;;;;;;;;5055528;28;20021;-41
2022/07/02 00:16:13;;;;;;;5.22;2.10;;;;;;;;;;5055551;28;20025;-42
2022/07/02 00:18:39;;;;;;;5.65;2.00;;;;;;;;;;5055615;28;20545;-40
2022/07/02 00:21:04;;;;;;;7.15;1.88;;;;;;;;;;5054706;28;20492;-44
2022/07/02 00:23:30;;;;;;;4.15;1.73;;;;;;;;;;5055366;28;20078;-42
2022/07/02 00:26:24;;;;;;;5.63;1.77;;;;;;;;;;5054963;28;20381;-41
2022/07/02 00:28:58;;;;;;;3.65;1.85;;;;;;;;;;5055271;28;20142;-40
2022/07/02 00:31:23;;;;;;;8.55;2.05;;;;;;;;;;5055112;28;20029;-40
2022/07/02 00:33:49;;;;;;;3.67;1.92;;;;;;;;;;5055079;28;20488;-37
2022/07/02 00:36:21;;;;;;;12.80;2.38;;;;;;;;;;5054653;28;20029;-37
2022/07/02 00:38:50;;;;;;;7.00;2.30;;;;;;;;;;5055287;28;20071;-36
2022/07/02 00:41:18;;;;;;;5.47;1.90;;;;;;;;;;5054869;28;20055;-37
2022/07/02 00:43:45;;;;;;;3.45;2.15;;;;;;;;;;5054896;28;20032;-38
2022/07/02 00:46:12;;;;;;;9.48;2.20;;;;;;;;;;5054827;28;20025;-43
2022/07/02 00:48:39;;;;;;;3.47;1.80;;;;;;;;;;5055136;28;20033;-41
2022/07/02 00:51:04;;;;;;;4.47;2.00;;;;;;;;;;5054889;28;20586;-39
2022/07/02 00:53:30;;;;;;;5.15;1.90;;;;;;;;;;5054788;28;20031;-38
2022/07/02 00:55:58;;;;;;;6.80;2.03;;;;;;;;;;5054767;28;20024;-42
2022/07/02 00:58:25;;;;;;;10.05;1.98;;;;;;;;;;5053807;28;20021;-43
2022/07/02 01:00:51;;;;;;;3.80;2.22;;;;;;;;;;5053227;28;20025;-43
2022/07/02 01:03:18;;;;;;;5.82;2.10;;;;;;;;;;5054273;28;20158;-43
2022/07/02 01:05:45;;;;;;;4.75;1.90;;;;;;;;;;5054799;28;20366;-47
2022/07/02 01:10:57;;;;;;;2.40;1.80;;;;;;;;;;5054172;28;20595;-44
2022/07/02 01:13:24;;;;;;;3.78;1.70;;;;;;;;;;5054392;28;20041;-47
2022/07/02 01:15:49;;;;;;;6.38;1.70;;;;;;;;;;5054296;28;20021;-48
2022/07/02 01:18:17;;;;;;;3.50;1.98;;;;;;;;;;5054484;28;20021;-47
2022/07/02 01:20:44;;;;;;;3.40;1.60;;;;;;;;;;5054476;28;20032;-40
2022/07/02 01:23:09;;;;;;;4.97;1.80;;;;;;;;;;5054106;28;20074;-44
2022/07/02 01:25:35;;;;;;;6.43;1.70;;;;;;;;;;5054343;28;20056;-41
2022/07/02 01:28:00;;;;;;;4.57;1.63;;;;;;;;;;5054086;28;20021;-43
2022/07/02 01:30:26;;;;;;;2.55;1.60;;;;;;;;;;5053866;28;20582;-41
2022/07/02 01:32:52;;;;;;;5.15;2.58;;;;;;;;;;5053963;28;20473;-43
2022/07/02 01:35:17;;;;;;;4.78;3.03;;;;;;;;;;5052902;28;20029;-44
2022/07/02 01:37:43;;;;;;;5.65;4.28;;;;;;;;;;5052182;28;20025;-40
2022/07/02 01:40:10;;;;;;;7.90;4.60;;;;;;;;;;5053614;28;20021;-41
2022/07/02 01:42:36;;;;;;;9.48;5.15;;;;;;;;;;5054044;28;20071;-43
2022/07/02 01:45:02;;;;;;;9.77;4.25;;;;;;;;;;5054004;28;20075;-46
2022/07/02 01:47:27;;;;;;;8.70;3.97;;;;;;;;;;5053949;28;20029;-44
2022/07/02 01:49:53;;;;;;;12.18;4.20;;;;;;;;;;5053504;28;20017;-45
2022/07/02 01:52:18;;;;;;;4.28;2.90;;;;;;;;;;5053726;28;20017;-46
2022/07/02 01:54:44;;;;;;;4.72;2.78;;;;;;;;;;5053628;28;20029;-46
2022/07/02 01:57:10;;;;;;;5.15;2.97;;;;;;;;;;5053595;28;20056;-48
2022/07/02 01:59:35;;;;;;;2.95;2.65;;;;;;;;;;5053498;28;20067;-40
2022/07/02 02:02:05;;;;;;;3.28;2.28;;;;;;;;;;5053457;28;20067;-44
2022/07/02 02:04:31;;;;;;;5.40;2.53;;;;;;;;;;5053427;28;20037;-40
2022/07/02 02:06:57;;;;;;;4.07;2.30;;;;;;;;;;5053359;28;20111;-40
2022/07/02 02:09:23;;;;;;;6.25;2.28;;;;;;;;;;5053022;28;20132;-41
2022/07/02 02:11:48;;;;;;;5.88;2.60;;;;;;;;;;5053303;28;20025;-41
2022/07/02 02:14:14;;;;;;;3.80;2.60;;;;;;;;;;5053263;28;20672;-43
2022/07/02 02:16:40;;;;;;;4.90;3.50;;;;;;;;;;5053489;28;20476;-42
2022/07/02 02:19:06;;;;;;;4.03;2.53;;;;;;;;;;5053434;28;20048;-41
2022/07/02 02:21:32;;;;;;;5.43;3.13;;;;;;;;;;5052378;28;20461;-41
2022/07/02 02:23:58;;;;;;;7.85;3.40;;;;;;;;;;5053052;28;20025;-41
2022/07/02 02:26:25;;;;;;;4.00;3.05;;;;;;;;;;5053079;28;20055;-44
2022/07/02 02:28:51;;;;;;;3.70;3.00;;;;;;;;;;5052708;28;20036;-43
2022/07/02 02:31:16;;;;;;;5.13;3.63;;;;;;;;;;5053146;28;20025;-44
2022/07/02 02:33:42;;;;;;;6.10;3.33;;;;;;;;;;5053153;28;20017;-46
2022/07/02 02:36:08;;;;;;;6.25;3.13;;;;;;;;;;5053078;28;20511;-47
2022/07/02 02:38:36;;;;;;;6.03;3.10;;;;;;;;;;5052796;28;20075;-47
2022/07/02 02:41:05;;;;;;;3.60;3.00;;;;;;;;;;5052945;28;20025;-42
2022/07/02 02:43:32;;;;;;;6.68;2.80;;;;;;;;;;5052495;28;20029;-41
2022/07/02 02:45:57;;;;;;;3.63;2.10;;;;;;;;;;5052710;28;20024;-44
2022/07/02 02:48:22;;;;;;;3.13;2.05;;;;;;;;;;5052576;28;20079;-43
2022/07/02 02:50:48;;;;;;;2.40;1.52;;;;;;;;;;5052851;28;20068;-40
2022/07/02 02:53:13;;;;;;;2.78;1.70;;;;;;;;;;5052623;28;20028;-41
2022/07/02 02:55:39;;;;;;;4.35;1.80;;;;;;;;;;5052766;28;20058;-42
2022/07/02 02:58:04;;;;;;;1.95;1.75;;;;;;;;;;5052496;28;20442;-41
2022/07/02 03:00:29;;;;;;;3.55;1.45;;;;;;;;;;5052467;28;20025;-41
2022/07/02 03:02:56;;;;;;;12.35;1.83;;;;;;;;;;5052610;28;20148;-42
2022/07/02 03:05:22;;;;;;;2.80;1.60;;;;;;;;;;5052725;28;20020;-44
2022/07/02 03:07:47;;;;;;;3.72;1.38;;;;;;;;;;5052362;28;20483;-42
2022/07/02 03:10:13;;;;;;;2.55;1.40;;;;;;;;;;5052067;28;20049;-40
2022/07/02 03:12:38;;;;;;;5.95;1.30;;;;;;;;;;5052740;28;20025;-42
2022/07/02 03:15:04;;;;;;;3.05;1.30;;;;;;;;;;5051053;28;20477;-49
2022/07/02 03:17:30;;;;;;;3.83;1.42;;;;;;;;;;5052411;28;20021;-46
2022/07/02 03:19:55;;;;;;;7.03;2.15;;;;;;;;;;5052562;28;20037;-47
2022/07/02 03:22:20;;;;;;;2.55;1.67;;;;;;;;;;5052142;28;20524;-41
2022/07/02 03:24:46;;;;;;;7.10;1.58;;;;;;;;;;5052343;28;20078;-42
2022/07/02 03:27:11;;;;;;;4.20;1.23;;;;;;;;;;5052320;28;20381;-43
2022/07/02 03:29:36;;;;;;;2.22;1.50;;;;;;;;;;5052336;28;20071;-41
2022/07/02 03:32:02;;;;;;;2.72;1.35;;;;;;;;;;5052895;28;20465;-42
2022/07/02 03:34:27;;;;;;;2.88;1.20;;;;;;;;;;5056315;28;20037;-43
2022/07/02 03:36:53;;;;;;;1.92;1.42;;;;;;;;;;5056489;28;20423;-43
2022/07/02 03:39:18;;;;;;;2.08;1.25;;;;;;;;;;5056522;28;20028;-43
2022/07/02 03:41:44;;;;;;;10.95;2.45;;;;;;;;;;5056334;28;20143;-43
2022/07/02 03:44:09;;;;;;;2.70;1.40;;;;;;;;;;5056281;28;20025;-42
2022/07/02 03:46:35;;;;;;;2.85;1.55;;;;;;;;;;5056259;28;20017;-42
2022/07/02 03:49:00;;;;;;;4.65;1.48;;;;;;;;;;5055970;28;20021;-44
2022/07/02 03:51:26;;;;;;;4.50;1.50;;;;;;;;;;5055853;28;20167;-42
2022/07/02 03:53:51;;;;;;;3.65;1.60;;;;;;;;;;5055906;28;20032;-43
2022/07/02 03:56:17;;;;;;;6.25;1.80;;;;;;;;;;5055798;28;20032;-43
2022/07/02 03:58:42;;;;;;;6.25;1.70;;;;;;;;;;5055838;28;20029;-45
2022/07/02 04:01:07;;;;;;;5.35;2.60;;;;;;;;;;5055730;28;20025;-42
2022/07/02 04:03:34;;;;;;;3.50;1.98;;;;;;;;;;5055951;28;20367;-44
2022/07/02 04:06:00;;;;;;;4.75;2.10;;;;;;;;;;5054310;28;20087;-42
2022/07/02 04:08:26;;;;;;;3.08;2.20;;;;;;;;;;5055529;28;20025;-42
2022/07/02 04:10:51;;;;;;;4.25;2.28;;;;;;;;;;5055783;28;20041;-46
2022/07/02 04:13:16;;;;;;;4.35;2.50;;;;;;;;;;5055507;28;20457;-44
2022/07/02 04:15:42;;;;;;;3.80;2.75;;;;;;;;;;5055445;28;20025;-45
2022/07/02 04:18:07;;;;;;;4.05;2.78;;;;;;;;;;5055386;28;20032;-43
2022/07/02 04:20:33;;;;;;;4.85;2.78;;;;;;;;;;5055349;28;20452;-44
2022/07/02 04:22:58;;;;;;;4.40;2.03;;;;;;;;;;5055529;28;20029;-42
2022/07/02 04:25:24;;;;;;;3.50;1.90;;;;;;;;;;5055566;28;20035;-43
2022/07/02 04:27:49;;;;;;;4.30;1.42;;;;;;;;;;5055282;28;20037;-45
2022/07/02 04:30:15;;;;;;;2.30;2.10;;;;;;;;;;5055130;28;20060;-46
2022/07/02 04:32:40;;;;;;;1.80;1.70;;;;;;;;;;5055201;28;20476;-43
2022/07/02 04:35:06;;;;;;;2.50;1.90;;;;;;;;;;5055097;28;20094;-44
2022/07/02 04:37:31;;;;;;;9.57;1.90;;;;;;;;;;5055312;28;20040;-47
2022/07/02 04:39:57;;;;;;;9.73;3.67;;;;;;;;;;5055021;28;20029;-46
2022/07/02 04:42:23;;;;;;;4.22;2.00;;;;;;;;;;5055229;28;20055;-41
2022/07/02 04:44:48;;;;;;;4.43;2.05;;;;;;;;;;5054375;28;20052;-42
2022/07/02 04:47:14;;;;;;;6.38;2.10;;;;;;;;;;5054918;28;20024;-42
2022/07/02 04:49:39;;;;;;;17.45;2.70;;;;;;;;;;5054670;28;20033;-43
2022/07/02 04:52:05;;;;;;;7.25;3.03;;;;;;;;;;5055130;28;20053;-45
2022/07/02 04:54:31;;;;;;;7.55;2.30;;;;;;;;;;5053532;28;20021;-41
2022/07/02 04:56:57;;;;;;;19.48;4.00;;;;;;;;;;5054910;28;20021;-43
2022/07/02 04:59:22;;;;;;;15.35;1.40;;;;;;;;;;5054661;28;20044;-45
2022/07/02 05:01:47;;;;;;;7.45;1.73;;;;;;;;;;5054671;28;20020;-42
2022/07/02 05:04:13;;;;;;;4.05;1.50;;;;;;;;;;5054828;28;20025;-45
2022/07/02 05:06:38;;;;;;;7.35;1.60;;;;;;;;;;5054539;28;20028;-43
2022/07/02 05:09:04;;;;;;;5.47;1.40;;;;;;;;;;5054440;28;20534;-42
2022/07/02 05:11:30;;;;;;;14.75;2.10;;;;;;;;;;5054584;28;20036;-42
2022/07/02 05:13:56;;;;;;;15.25;2.10;;;;;;;;;;5054342;28;20083;-45
2022/07/02 05:16:22;;;;;;;12.40;2.15;;;;;;;;;;5054507;28;20031;-43
2022/07/02 05:18:47;;;;;;;5.82;1.80;;;;;;;;;;5054313;28;20448;-41
2022/07/02 05:21:13;;;;;;;10.07;1.80;;;;;;;;;;5054232;28;20029;-45
2022/07/02 05:23:39;;;;;;;4.60;1.48;;;;;;;;;;5054211;28;20381;-43
2022/07/02 05:26:05;;;;;;;14.88;2.13;;;;;;;;;;5054392;28;20029;-46
2022/07/02 05:28:30;;;;;;;8.52;2.35;;;;;;;;;;5052968;28;20109;-41
2022/07/02 05:30:55;;;;;;;3.33;1.90;;;;;;;;;;5054267;28;20488;-46
2022/07/02 05:33:21;;;;;;;3.50;2.10;;;;;;;;;;5054007;28;20017;-45
2022/07/02 05:35:47;;;;;;;3.38;1.80;;;;;;;;;;5053919;28;20017;-41
2022/07/02 05:38:12;;;;;;;5.25;1.73;;;;;;;;;;5053922;28;20055;-42
2022/07/02 05:40:38;;;;;;;4.68;2.10;;;;;;;;;;5054096;28;20029;-44
2022/07/02 05:43:04;;;;;;;8.85;2.08;;;;;;;;;;5053728;28;20102;-42
2022/07/02 05:45:30;;;;;;;12.98;2.33;;;;;;;;;;5054031;28;20033;-43
2022/07/02 05:47:56;;;;;;;9.50;1.60;;;;;;;;;;5053959;28;20378;-44
2022/07/02 05:50:21;;;;;;;13.93;2.25;;;;;;;;;;5053716;28;20025;-48
2022/07/02 05:52:47;;;;;;;7.55;1.70;;;;;;;;;;5053626;28;20108;-44
2022/07/02 05:55:12;;;;;;;11.05;2.22;;;;;;;;;;5053884;28;20358;-43
2022/07/02 05:57:38;;;;;;;6.97;2.45;;;;;;;;;;5053833;28;20112;-46
2022/07/02 06:00:05;;;;;;;8.40;1.67;;;;;;;;;;5053445;28;20056;-45
2022/07/02 06:02:30;;;;;;;5.20;1.90;;;;;;;;;;5053393;28;20115;-41
2022/07/02 06:04:56;;;;;;;3.72;1.40;;;;;;;;;;5053642;28;20484;-42
2022/07/02 06:07:40;;;;;;;5.03;1.50;;;;;;;;;;5053610;28;20032;-44
2022/07/02 06:10:06;;;;;;;13.40;2.70;;;;;;;;;;5053074;28;20147;-43
2022/07/02 06:12:32;;;;;;;4.68;1.85;;;;;;;;;;5053281;28;20021;-42
2022/07/02 06:14:57;;;;;;;8.77;2.40;;;;;;;;;;5053214;28;20036;-42
2022/07/02 06:17:22;;;;;;;99.53;7.25;;;;;;;;;;5053159;28;20071;-46
2022/07/02 06:19:48;;;;;;;14.50;3.55;;;;;;;;;;5053142;28;20112;-42
2022/07/02 06:22:14;;;;;;;6.40;2.20;;;;;;;;;;5053096;28;20029;-41
2022/07/02 06:24:40;;;;;;;7.03;2.25;;;;;;;;;;5052996;28;20354;-45
2022/07/02 06:27:05;;;;;;;4.63;2.00;;;;;;;;;;5052859;28;20025;-44
2022/07/02 06:29:31;;;;;;;8.57;1.83;;;;;;;;;;5053175;28;20065;-42
2022/07/02 06:31:57;;;;;;;9.88;1.80;;;;;;;;;;5052890;28;20473;-44
2022/07/02 06:34:22;;;;;;;4.35;2.20;;;;;;;;;;5052803;28;20385;-41
2022/07/02 06:36:48;;;;;;;3.10;1.83;;;;;;;;;;5053045;28;20029;-47
2022/07/02 06:39:13;;;;;;;7.43;2.33;;;;;;;;;;5052813;28;20047;-43
2022/07/02 06:44:22;;;;;;;3.58;1.70;;;;;;;;;;5052815;28;20036;-47
2022/07/02 06:46:48;;;;;;;5.43;2.30;;;;;;;;;;5052898;28;20119;-48
2022/07/02 06:49:13;;;;;;;4.28;2.13;;;;;;;;;;5052875;28;20108;-48
2022/07/02 06:51:38;;;;;;;4.03;1.95;;;;;;;;;;5052492;28;20021;-44
2022/07/02 06:54:04;;;;;;;4.78;1.88;;;;;;;;;;5052553;28;20037;-46
2022/07/02 06:56:35;;;;;;;8.90;1.90;;;;;;;;;;5052521;28;20025;-43
2022/07/02 06:59:05;;;;;;;5.47;1.42;;;;;;;;;;5051254;28;20053;-45
2022/07/02 07:01:30;;;;;;;;;;;;;;;;;;5052918;28;20060;-43
2022/07/02 07:03:56;;;;;;;4.75;2.10;;;;;;;;;;5052658;28;20368;-45
2022/07/02 07:06:31;;;;;;;1.98;1.77;;;;;;;;;;5052138;28;20385;-46
2022/07/02 07:08:56;;;;;;;3.38;1.95;;;;;;;;;;5052257;28;20052;-44
2022/07/02 07:11:22;;;;;;;4.57;2.20;;;;;;;;;;5050879;28;20493;-42
2022/07/02 07:13:48;;;;;;;3.85;1.60;;;;;;;;;;5052286;28;20021;-42
2022/07/02 07:16:14;;;;;;;19.70;2.30;;;;;;;;;;5052284;28;20025;-44
2022/07/02 07:18:40;;;;;;;6.22;2.10;;;;;;;;;;5050880;28;20032;-43
2022/07/02 07:21:06;;;;;;;8.98;2.70;;;;;;;;;;5052422;28;20021;-47
2022/07/02 07:23:31;;;;;;;8.90;2.88;;;;;;;;;;5052191;28;20480;-47
2022/07/02 07:25:57;;;;;;;9.63;2.22;;;;;;;;;;5052135;28;20037;-45
2022/07/02 07:28:26;;;;;;;5.82;2.67;;;;;;;;;;5052521;28;20025;-45
2022/07/02 07:30:53;;;;;;;6.35;2.30;;;;;;;;;;5052026;28;20032;-41
2022/07/02 07:33:18;;;;;;;6.78;2.97;;;;;;;;;;5052408;28;20031;-44
2022/07/02 07:35:44;;;;;;;9.85;2.25;;;;;;;;;;5052376;28;20123;-45
2022/07/02 07:38:10;;;;;;;6.65;2.38;;;;;;;;;;5050809;28;20461;-42
2022/07/02 07:40:36;;;;;;;5.15;3.40;;;;;;;;;;5052031;28;20029;-41
2022/07/02 07:43:02;;;;;;;11.70;2.67;;;;;;;;;;5052142;28;20033;-43
2022/07/02 07:45:28;;;;;;;5.82;1.95;;;;;;;;;;5052093;28;20435;-45
2022/07/02 07:47:53;;;;;;;8.18;2.42;;;;;;;;;;5052295;28;20025;-42
2022/07/02 07:50:19;;;;;;;4.75;2.00;;;;;;;;;;5051822;28;20048;-41
2022/07/02 07:52:44;;;;;;;6.53;2.40;;;;;;;;;;5052000;28;20111;-44
2022/07/02 07:55:10;;;;;;;2.78;1.92;;;;;;;;;;5051974;28;20021;-44
2022/07/02 07:57:35;;;;;;;5.00;1.90;;;;;;;;;;5051816;28;20040;-44
2022/07/02 08:00:02;;;;;;;6.70;1.98;;;;;;;;;;5051891;28;20029;-44
2022/07/02 08:02:27;;;;;;;6.60;1.98;;;;;;;;;;5052122;28;20028;-47
2022/07/02 08:04:53;;;;;;;2.28;1.52;;;;;;;;;;5052137;28;20029;-47
2022/07/02 08:07:18;;;;;;;4.63;1.60;;;;;;;;;;5051892;28;20465;-46
2022/07/02 08:09:44;;;;;;;4.22;1.60;;;;;;;;;;5051540;28;20076;-43
2022/07/02 08:12:09;;;;;;;11.75;1.67;;;;;;;;;;5051815;28;20025;-43
2022/07/02 08:14:35;;;;;;;1.50;1.40;;;;;;;;;;5052027;28;20025;-46
2022/07/02 08:17:00;;;;;;;10.98;2.28;;;;;;;;;;5051726;28;20091;-47
2022/07/02 08:19:27;;;;;;;3.15;1.88;;;;;;;;;;5053014;28;20025;-42
2022/07/02 08:21:52;;;;;;;5.72;1.58;;;;;;;;;;5055636;28;20590;-40
2022/07/02 08:24:18;;;;;;;6.80;2.17;;;;;;;;;;5055312;28;20116;-44
2022/07/02 08:26:43;;;;;;;5.72;1.90;;;;;;;;;;5054060;28;20067;-44
2022/07/02 08:29:09;;;;;;;12.38;2.30;;;;;;;;;;5055504;28;20020;-44
2022/07/02 08:31:34;;;;;;;4.65;2.10;;;;;;;;;;5055044;28;20033;-44
2022/07/02 08:34:00;;;;;;;3.67;2.33;;;;;;;;;;5055114;28;20021;-42
2022/07/02 08:36:26;;;;;;;5.00;3.00;;;;;;;;;;5055283;28;20517;-42
2022/07/02 08:38:52;;;;;;;6.15;2.80;;;;;;;;;;5055343;28;20427;-44
2022/07/02 08:41:17;;;;;;;5.10;2.70;;;;;;;;;;5055248;28;20029;-43
2022/07/02 08:43:44;;;;;;;5.00;3.00;;;;;;;;;;5055076;28;20479;-43
2022/07/02 08:46:12;;;;;;;5.55;2.60;;;;;;;;;;5053714;28;20025;-44
2022/07/02 08:48:39;;;;;;;15.45;7.82;;;;;;;;;;5055048;28;20061;-42
2022/07/02 08:51:04;;;;;;;7.85;3.67;;;;;;;;;;5054917;28;20435;-46
2022/07/02 08:53:30;;;;;;;12.50;3.75;;;;;;;;;;5055068;28;20025;-45
2022/07/02 08:55:58;;;;;;;7.70;3.55;;;;;;;;;;5054916;28;20065;-44
2022/07/02 08:58:24;;;;;;;3.40;2.00;;;;;;;;;;5054974;28;20039;-47
2022/07/02 09:00:49;;;;;;;5.65;2.50;;;;;;;;;;5054637;28;20115;-43
2022/07/02 09:03:19;;;;;;;3.17;1.70;;;;;;;;;;5054876;28;20520;-42
2022/07/02 09:05:47;;;;;;;;;;;;;;;;;;5055192;28;20044;-44
2022/07/02 09:08:13;;;;;;;7.50;3.10;;;;;;;;;;5054528;28;19908;-42
2022/07/02 09:10:39;;;;;;;6.63;2.53;;;;;;;;;;5054154;28;20053;-46
2022/07/02 09:13:05;;;;;;;9.23;2.88;;;;;;;;;;5054650;28;20033;-40
2022/07/02 09:15:31;;;;;;;6.80;2.58;;;;;;;;;;5054368;28;20389;-43
2022/07/02 09:17:57;;;;;;;4.50;2.47;;;;;;;;;;5054349;28;20031;-43
2022/07/02 09:20:23;;;;;;;5.40;2.75;;;;;;;;;;5054518;28;20025;-43
2022/07/02 09:22:51;;;;;;;6.40;2.17;;;;;;;;;;5054172;28;20040;-46
2022/07/02 09:25:24;;;;;;;9.13;2.80;;;;;;;;;;5054516;28;20451;-46
2022/07/02 09:27:58;;;;;;;9.52;4.10;;;;;;;;;;5052357;28;20025;-42
2022/07/02 09:30:23;;;;;;;8.00;3.72;;;;;;;;;;5051608;28;20115;-44
2022/07/02 09:32:48;;;;;;;4.57;2.33;;;;;;;;;;5052341;28;20220;-45
2022/07/02 09:35:22;;;;;;;5.43;2.95;;;;;;;;;;5052293;28;20468;-44
2022/07/02 09:37:49;;;;;;;8.50;3.15;;;;;;;;;;5052620;28;20017;-44
2022/07/02 09:40:16;;;;;;;4.18;2.38;;;;;;;;;;5053778;28;20033;-45
2022/07/02 09:42:46;;;;;;;4.57;2.60;;;;;;;;;;5053526;28;20443;-48
2022/07/02 09:45:13;;;;;;;10.80;2.63;;;;;;;;;;5053318;28;20083;-46
2022/07/02 09:47:41;;;;;;;3.25;2.50;;;;;;;;;;5053919;28;20381;-46
2022/07/02 09:50:08;;;;;;;13.75;2.92;;;;;;;;;;5053649;28;20017;-45
2022/07/02 09:52:34;;;;;;;2.90;2.40;;;;;;;;;;5053877;28;20061;-50
2022/07/02 09:55:02;;;;;;;8.48;2.72;;;;;;;;;;5053480;28;20032;-44
2022/07/02 09:57:28;;;;;;;10.85;2.97;;;;;;;;;;5052216;28;20542;-42
2022/07/02 10:00:02;;;;;;;7.68;3.00;;;;;;;;;;5053757;28;20044;-43
2022/07/02 10:02:28;;;;;;;6.78;2.40;;;;;;;;;;5053498;28;20467;-46
2022/07/02 10:04:56;;;;;;;4.78;2.20;;;;;;;;;;5053391;28;20082;-45
2022/07/02 10:07:24;;;;;;;8.35;2.60;;;;;;;;;;5052144;28;20546;-46
2022/07/02 10:09:51;;;;;;;8.20;2.47;;;;;;;;;;5052982;28;20049;-45
2022/07/02 10:12:18;;;;;;;3.75;2.30;;;;;;;;;;5053234;28;20025;-46
2022/07/02 10:14:45;;;;;;;9.68;2.67;;;;;;;;;;5052080;28;20159;-42
2022/07/02 10:17:12;;;;;;;4.32;2.30;;;;;;;;;;5053318;28;20035;-45
2022/07/02 10:19:38;;;;;;;6.13;2.45;;;;;;;;;;5053007;28;20051;-44
2022/07/02 10:22:06;;;;;;;5.40;2.80;;;;;;;;;;5052948;28;20040;-43
2022/07/02 10:24:32;;;;;;;9.73;2.40;;;;;;;;;;5052925;28;20037;-41
2022/07/02 10:26:59;;;;;;;5.60;2.38;;;;;;;;;;5053096;28;20029;-44
2022/07/02 10:29:26;;;;;;;4.05;2.75;;;;;;;;;;5052781;28;20021;-48
2022/07/02 10:32:38;;;;;;;5.15;2.97;;;;;;;;;;5053062;28;20040;-48
2022/07/02 10:35:11;;;;;;;5.20;2.40;;;;;;;;;;5037939;28;20041;-44
2022/07/02 10:37:38;;;;;;;5.38;2.70;;;;;;;;;;5052603;28;20036;-42
2022/07/02 10:40:04;;;;;;;6.97;2.50;;;;;;;;;;5051533;28;20472;-47
2022/07/02 10:42:40;;;;;;;4.53;2.10;;;;;;;;;;5051947;28;20083;-41
2022/07/02 10:45:12;;;;;;;3.95;2.85;;;;;;;;;;5052798;28;20051;-43
2022/07/02 10:47:56;;;;;;;9.68;3.10;;;;;;;;;;5052912;28;20032;-43
2022/07/02 10:50:27;;;;;;;10.93;3.30;;;;;;;;;;5052709;28;20111;-42
2022/07/02 10:52:52;;;;;;;5.80;2.97;;;;;;;;;;5052733;28;20438;-45
2022/07/02 10:55:29;;;;;;;8.05;3.20;;;;;;;;;;5052810;28;20103;-45
2022/07/02 10:57:58;;;;;;;6.40;3.17;;;;;;;;;;5052779;28;20115;-45
2022/07/02 11:00:38;;;;;;;5.10;3.17;;;;;;;;;;5052768;28;20104;-44
2022/07/02 11:03:30;;;;;;;7.20;3.17;;;;;;;;;;5052509;28;20029;-42
2022/07/02 11:06:01;;;;;;;28.00;3.83;;;;;;;;;;5049444;28;20036;-43
2022/07/02 11:08:32;;;;;;;6.22;2.78;;;;;;;;;;5052539;28;20075;-42
2022/07/02 11:10:58;;;;;;;6.97;2.72;;;;;;;;;;5052551;28;20045;-47
2022/07/02 11:13:44;;;;;;;9.45;3.08;;;;;;;;;;5052279;28;20045;-43
2022/07/02 11:16:17;;;;;;;9.27;2.72;;;;;;;;;;5052323;28;20071;-46
2022/07/02 11:18:45;;;;;;;6.38;2.30;;;;;;;;;;5052240;28;20079;-42
2022/07/02 11:21:12;;;;;;;5.60;2.50;;;;;;;;;;5052569;28;20456;-42
2022/07/02 11:23:39;;;;;;;7.65;3.10;;;;;;;;;;5052245;28;20025;-42
2022/07/02 11:26:04;;;;;;;8.32;2.72;;;;;;;;;;5051770;28;20060;-43
2022/07/02 11:28:30;;;;;;;4.45;2.90;;;;;;;;;;5051290;28;20052;-43
2022/07/02 11:30:58;;;;;;;6.05;2.85;;;;;;;;;;5052067;28;20472;-45
2022/07/02 11:33:23;;;;;;;6.17;3.07;;;;;;;;;;5051235;28;20021;-43
2022/07/02 11:35:52;;;;;;;5.25;2.97;;;;;;;;;;5048012;28;20340;-48
2022/07/02 11:38:19;;;;;;;5.30;2.95;;;;;;;;;;5052125;28;20059;-42
2022/07/02 11:40:44;;;;;;;7.28;2.85;;;;;;;;;;5052210;28;20037;-47
2022/07/02 11:43:17;;;;;;;5.10;2.92;;;;;;;;;;5052340;28;20433;-45
2022/07/02 11:45:47;;;;;;;9.23;3.08;;;;;;;;;;5051550;28;20025;-41
2022/07/02 11:48:21;;;;;;;8.85;2.90;;;;;;;;;;5050197;28;20033;-42
2022/07/02 11:51:00;;;;;;;5.97;2.80;;;;;;;;;;5050449;28;20037;-42
2022/07/02 11:53:25;;;;;;;6.45;2.85;;;;;;;;;;5051707;28;20552;-45
2022/07/02 11:55:52;;;;;;;4.55;2.97;;;;;;;;;;5054460;28;20117;-42
2022/07/02 11:58:20;;;;;;;3.63;2.65;;;;;;;;;;5054192;28;20025;-47
2022/07/02 12:00:46;;;;;;;3.53;2.92;;;;;;;;;;5053740;28;20029;-44
2022/07/02 12:03:12;;;;;;;11.57;3.10;;;;;;;;;;5054262;28;20431;-42
2022/07/02 12:05:49;;;;;;;10.57;3.00;;;;;;;;;;5054200;28;20086;-46
2022/07/02 12:08:16;;;;;;;9.25;3.13;;;;;;;;;;5054302;28;20033;-51
2022/07/02 12:10:41;;;;;;;4.28;3.17;;;;;;;;;;5053607;28;20052;-44
2022/07/02 12:13:08;;;;;;;11.05;3.30;;;;;;;;;;5053873;28;20496;-50
2022/07/02 12:15:41;;;;;;;5.35;3.10;;;;;;;;;;5052445;28;20037;-52
2022/07/02 12:18:27;;;;;;;4.18;2.80;;;;;;;;;;5053643;28;20024;-51
2022/07/02 12:20:52;;;;;;;7.18;3.17;;;;;;;;;;5051033;28;20485;-47
2022/07/02 12:23:18;;;;;;;8.05;3.05;;;;;;;;;;5054076;28;20036;-47
2022/07/02 12:25:48;;;;;;;6.43;3.97;;;;;;;;;;5051898;28;20083;-51
2022/07/02 12:31:01;;;;;;;6.65;3.03;;;;;;;;;;5053318;28;20575;-48
2022/07/02 12:33:34;;;;;;;5.10;2.80;;;;;;;;;;5053937;28;20116;-42
2022/07/02 12:36:02;;;;;;;4.13;2.53;;;;;;;;;;5053435;28;20088;-50
2022/07/02 12:38:28;;;;;;;6.85;2.92;;;;;;;;;;5053730;28;20033;-49
2022/07/02 12:40:59;;;;;;;10.35;2.83;;;;;;;;;;5053373;28;20052;-40
2022/07/02 12:43:24;;;;;;;4.43;2.70;;;;;;;;;;5053775;28;20106;-51
2022/07/02 12:45:49;;;;;;;6.22;2.92;;;;;;;;;;5053177;28;20388;-44
2022/07/02 12:48:16;;;;;;;8.07;2.90;;;;;;;;;;5052578;28;20108;-49
2022/07/02 12:50:44;;;;;;;4.07;2.60;;;;;;;;;;5053317;28;20067;-41
2022/07/02 12:53:20;;;;;;;4.45;2.83;;;;;;;;;;5053074;28;20499;-49
2022/07/02 12:55:55;;;;;;;6.60;2.50;;;;;;;;;;5053502;28;20048;-42
2022/07/02 12:58:22;;;;;;;6.90;2.53;;;;;;;;;;5053375;28;20059;-46
2022/07/02 13:00:48;;;;;;;4.03;2.30;;;;;;;;;;5053379;28;20029;-48
2022/07/02 13:03:15;;;;;;;6.00;2.08;;;;;;;;;;5053236;28;20480;-42
2022/07/02 13:05:43;;;;;;;2.40;1.95;;;;;;;;;;5052617;28;20100;-44
2022/07/02 13:08:08;;;;;;;4.13;1.90;;;;;;;;;;5051562;28;20028;-43
2022/07/02 13:10:35;;;;;;;3.15;1.70;;;;;;;;;;5052669;28;20060;-41
2022/07/02 13:13:00;;;;;;;10.77;1.90;;;;;;;;;;5052741;28;20044;-45
2022/07/02 13:15:26;;;;;;;3.72;1.77;;;;;;;;;;5052195;28;20650;-48
2022/07/02 13:17:51;;;;;;;8.98;2.03;;;;;;;;;;5052090;28;20112;-44
2022/07/02 13:20:17;;;;;;;4.57;2.00;;;;;;;;;;5052488;28;20017;-40
2022/07/02 13:22:43;;;;;;;2.90;1.90;;;;;;;;;;5052534;28;20063;-42
2022/07/02 13:25:11;;;;;;;5.40;2.00;;;;;;;;;;5052100;28;20099;-51
2022/07/02 13:27:38;;;;;;;6.10;2.25;;;;;;;;;;5049481;28;20016;-41
2022/07/02 13:30:08;;;;;;;3.55;1.70;;;;;;;;;;5052122;28;20032;-48
2022/07/02 13:32:34;;;;;;;5.32;1.80;;;;;;;;;;5052131;28;20025;-44
2022/07/02 13:34:59;;;;;;;4.13;1.88;;;;;;;;;;5052245;28;20388;-43
2022/07/02 13:37:24;;;;;;;2.70;2.08;;;;;;;;;;5050981;28;20037;-44
2022/07/02 13:39:50;;;;;;;7.63;2.20;;;;;;;;;;5052236;28;20029;-44
2022/07/02 13:42:16;;;;;;;3.17;1.92;;;;;;;;;;5052042;28;20029;-50
2022/07/02 13:44:41;;;;;;;7.50;2.25;;;;;;;;;;5052214;28;20032;-46
2022/07/02 13:47:06;;;;;;;3.83;1.70;;;;;;;;;;5052277;28;20024;-50
2022/07/02 13:49:32;;;;;;;6.30;1.70;;;;;;;;;;5052442;28;20019;-42
2022/07/02 13:51:59;;;;;;;7.05;1.83;;;;;;;;;;5052041;28;20380;-42
2022/07/02 13:54:25;;;;;;;3.13;1.70;;;;;;;;;;5052101;28;20036;-47
2022/07/02 13:56:50;;;;;;;5.80;1.83;;;;;;;;;;5051394;28;20421;-44
2022/07/02 13:59:16;;;;;;;4.28;1.85;;;;;;;;;;5051443;28;20028;-44
2022/07/02 14:01:43;;;;;;;3.25;2.05;;;;;;;;;;5051267;28;20040;-46
2022/07/02 14:04:08;;;;;;;4.72;1.90;;;;;;;;;;5049787;28;20078;-47
2022/07/02 14:06:34;;;;;;;4.93;2.15;;;;;;;;;;5051292;28;20021;-46
2022/07/02 14:08:59;;;;;;;3.33;2.22;;;;;;;;;;5051506;28;20081;-42
2022/07/02 14:11:25;;;;;;;8.45;2.17;;;;;;;;;;5051789;28;20087;-43
2022/07/02 14:13:51;;;;;;;4.78;2.10;;;;;;;;;;5051923;28;20032;-48
2022/07/02 14:16:17;;;;;;;4.88;1.92;;;;;;;;;;5049567;28;20590;-46
2022/07/02 14:18:43;;;;;;;6.22;2.20;;;;;;;;;;5051089;28;20025;-49
2022/07/02 14:21:08;;;;;;;4.97;2.00;;;;;;;;;;5051440;28;20029;-43
2022/07/02 14:23:34;;;;;;;4.20;1.95;;;;;;;;;;5051035;28;20497;-45
2022/07/02 14:26:00;;;;;;;4.07;1.85;;;;;;;;;;5050844;28;20028;-48
2022/07/02 14:28:29;;;;;;;3.25;1.77;;;;;;;;;;5050477;28;20381;-50
2022/07/02 14:30:54;;;;;;;3.60;2.38;;;;;;;;;;5051243;28;20028;-52
2022/07/02 14:33:20;;;;;;;5.18;2.00;;;;;;;;;;5051552;28;20033;-46
2022/07/02 14:35:45;;;;;;;3.75;1.85;;;;;;;;;;5051424;28;20021;-49
2022/07/02 14:38:12;;;;;;;3.95;1.95;;;;;;;;;;5051556;28;20056;-51
2022/07/02 14:40:38;;;;;;;4.30;1.77;;;;;;;;;;5050986;28;20457;-48
2022/07/02 14:43:03;;;;;;;3.30;1.90;;;;;;;;;;5051414;28;20107;-46
2022/07/02 14:45:29;;;;;;;4.00;1.88;;;;;;;;;;5051048;28;20493;-48
2022/07/02 14:47:54;;;;;;;4.03;2.05;;;;;;;;;;5049104;28;20102;-45
2022/07/02 14:50:20;;;;;;;5.72;1.88;;;;;;;;;;5050468;28;20147;-49